createdAt,value
2019-05-29T00:01:59.712Z,75.60
2019-05-29T00:08:44.683Z,76.20
2019-05-29T00:15:29.747Z,75.80
2019-05-29T00:22:14.765Z,75.70
2019-05-29T00:28:59.809Z,76.20
2019-05-29T00:35:44.792Z,76.10
2019-05-29T00:42:29.802Z,75.60
2019-05-29T00:49:15.907Z,75.60
2019-05-29T00:56:01.178Z,75.90
2019-05-29T01:02:46.118Z,76.40
2019-05-29T01:09:31.058Z,76.80
2019-05-29T01:16:15.975Z,76.20
2019-05-29T01:23:00.843Z,75.30
2019-05-29T01:29:45.714Z,75.40
2019-05-29T01:36:30.572Z,76.30
2019-05-29T01:43:15.460Z,77.50
2019-05-29T01:50:00.360Z,77.60
2019-05-29T01:56:45.492Z,80.40
2019-05-29T02:03:30.799Z,82.50
2019-05-29T02:10:16.027Z,85.60
2019-05-29T02:17:01.069Z,87.00
2019-05-29T02:23:45.929Z,88.10
2019-05-29T02:30:31.520Z,89.40
2019-05-29T02:37:18.154Z,89.10
2019-05-29T02:44:03.108Z,87.40
2019-05-29T02:50:48.070Z,86.80
2019-05-29T02:57:33.003Z,86.40
2019-05-29T03:04:18.107Z,86.90
2019-05-29T03:11:03.041Z,87.70
2019-05-29T03:17:47.980Z,87.90
2019-05-29T03:24:33.494Z,85.70
2019-05-29T03:31:19.560Z,84.40
2019-05-29T03:38:04.740Z,84.50
2019-05-29T03:44:50.754Z,85.60
2019-05-29T03:51:37.206Z,83.70
2019-05-29T03:58:22.304Z,84.90
2019-05-29T04:05:07.912Z,84.50
2019-05-29T04:11:52.868Z,84.90
2019-05-29T04:18:38.958Z,84.00
2019-05-29T04:25:31.291Z,83.30
2019-05-29T04:32:12.851Z,83.20
2019-05-29T04:38:57.788Z,80.20
2019-05-29T04:45:42.828Z,81.30
2019-05-29T04:52:29.145Z,81.00
2019-05-29T04:59:14.130Z,80.70
2019-05-29T05:05:59.031Z,80.00
2019-05-29T05:12:44.479Z,78.90
2019-05-29T05:19:29.745Z,78.30
2019-05-29T05:26:14.693Z,77.60
2019-05-29T05:32:59.635Z,76.70
2019-05-29T05:39:44.500Z,76.60
2019-05-29T05:46:29.404Z,77.10
2019-05-29T05:53:14.458Z,76.70
2019-05-29T05:59:59.326Z,76.80
2019-05-29T06:06:44.279Z,76.40
2019-05-29T06:13:30.774Z,76.50
2019-05-29T06:20:15.986Z,77.10
2019-05-29T06:27:00.966Z,77.30
2019-05-29T06:33:46.111Z,76.40
2019-05-29T06:40:38.244Z,76.10
2019-05-29T06:47:24.397Z,74.80
2019-05-29T06:54:09.419Z,75.50
2019-05-29T07:00:54.393Z,75.20
2019-05-29T07:07:40.326Z,74.80
2019-05-29T07:14:26.047Z,73.90
2019-05-29T07:21:11.140Z,73.90
2019-05-29T07:27:56.175Z,73.00
2019-05-29T07:34:59.465Z,72.50
2019-05-29T07:41:29.255Z,71.70
2019-05-29T07:48:14.527Z,70.20
2019-05-29T07:54:59.561Z,70.50
2019-05-29T08:01:44.807Z,70.00
2019-05-29T08:08:29.822Z,68.70
2019-05-29T08:15:15.119Z,67.30
2019-05-29T08:22:00.116Z,64.10
2019-05-29T08:28:46.661Z,61.70
2019-05-29T08:35:32.258Z,59.40
2019-05-29T08:42:23.269Z,60.50
2019-05-29T08:49:04.164Z,58.40
2019-05-29T08:55:49.552Z,56.60
2019-05-29T09:02:35.507Z,56.60
2019-05-29T09:09:20.363Z,55.20
2019-05-29T09:16:05.371Z,52.20
2019-05-29T09:22:51.619Z,53.90
2019-05-29T09:29:36.615Z,54.10
2019-05-29T09:36:22.793Z,55.80
2019-05-29T09:43:08.051Z,53.60
2019-05-29T09:49:53.038Z,50.70
2019-05-29T09:56:37.993Z,48.10
2019-05-29T10:03:39.526Z,44.40
2019-05-29T10:10:25.155Z,41.30
2019-05-29T10:17:12.980Z,42.60
2019-05-29T10:23:57.978Z,51.50
2019-05-29T10:30:44.418Z,55.10
2019-05-29T10:37:30.731Z,55.90
2019-05-29T10:44:15.714Z,55.90
2019-05-29T10:51:00.755Z,53.60
2019-05-29T10:57:46.659Z,51.80
2019-05-29T11:04:31.728Z,50.80
2019-05-29T11:11:17.122Z,46.70
2019-05-29T11:18:02.207Z,45.40
2019-05-29T11:24:47.961Z,44.00
2019-05-29T11:31:33.128Z,42.70
2019-05-29T11:38:18.090Z,42.70
2019-05-29T11:45:03.957Z,42.40
2019-05-29T11:51:48.917Z,44.40
2019-05-29T11:58:33.954Z,44.80
2019-05-29T12:05:31.427Z,43.10
2019-05-29T12:12:16.806Z,40.50
2019-05-29T12:19:02.037Z,46.20
2019-05-29T12:25:47.158Z,51.00
2019-05-29T12:32:35.436Z,50.20
2019-05-29T12:39:20.784Z,48.40
2019-05-29T12:46:05.872Z,49.30
2019-05-29T12:52:50.856Z,49.50
2019-05-29T12:59:37.581Z,50.10
2019-05-29T13:06:22.632Z,50.20
2019-05-29T13:13:10.871Z,46.50
2019-05-29T13:19:59.721Z,44.30
2019-05-29T13:26:42.511Z,44.90
2019-05-29T13:33:27.566Z,46.60
2019-05-29T13:40:13.464Z,46.90
2019-05-29T13:46:59.866Z,45.70
2019-05-29T13:54:01.975Z,46.20
2019-05-29T14:00:34.749Z,46.30
2019-05-29T14:07:21.483Z,45.80
2019-05-29T14:14:07.936Z,47.60
2019-05-29T14:20:53.146Z,47.90
2019-05-29T14:27:39.153Z,49.70
2019-05-29T14:34:24.973Z,45.80
2019-05-29T14:41:12.987Z,46.00
2019-05-29T14:47:57.891Z,46.90
2019-05-29T14:54:43.011Z,48.70
2019-05-29T15:01:28.137Z,48.80
2019-05-29T15:08:14.156Z,49.60
2019-05-29T15:15:02.100Z,46.60
2019-05-29T15:21:48.265Z,47.30
2019-05-29T15:28:33.182Z,49.40
2019-05-29T15:35:20.077Z,48.60
2019-05-29T15:42:06.795Z,46.50
2019-05-29T15:48:51.867Z,45.60
2019-05-29T15:55:36.900Z,46.20
2019-05-29T16:02:21.967Z,46.30
2019-05-29T16:09:08.293Z,46.00
2019-05-29T16:15:53.328Z,49.60
2019-05-29T16:22:38.690Z,51.40
2019-05-29T16:29:24.739Z,57.80
2019-05-29T16:36:09.681Z,59.40
2019-05-29T16:42:54.687Z,59.90
2019-05-29T16:49:39.614Z,58.40
2019-05-29T16:56:24.475Z,60.20
2019-05-29T17:03:09.467Z,61.90
2019-05-29T17:09:54.360Z,61.70
2019-05-29T17:16:39.794Z,62.90
2019-05-29T17:23:25.107Z,63.80
2019-05-29T17:30:10.415Z,63.30
2019-05-29T17:36:55.348Z,63.60
2019-05-29T17:43:40.384Z,62.90
2019-05-29T17:50:26.716Z,62.60
2019-05-29T17:57:11.887Z,62.10
2019-05-29T18:03:57.352Z,61.40
2019-05-29T18:10:42.943Z,61.40
2019-05-29T18:17:28.208Z,61.70
2019-05-29T18:24:13.934Z,61.80
2019-05-29T18:30:59.163Z,62.40
2019-05-29T18:37:44.158Z,62.40
2019-05-29T18:44:29.451Z,63.20
2019-05-29T18:51:14.311Z,64.30
2019-05-29T18:58:01.892Z,66.60
2019-05-29T19:04:45.847Z,67.20
2019-05-29T19:11:31.910Z,68.90
2019-05-29T19:18:17.067Z,70.10
2019-05-29T19:25:02.103Z,71.70
2019-05-29T19:31:48.122Z,72.40
2019-05-29T19:38:34.056Z,73.50
2019-05-29T19:45:19.581Z,74.60
2019-05-29T19:52:04.724Z,75.30
2019-05-29T19:58:49.591Z,76.80
2019-05-29T20:05:34.926Z,77.90
2019-05-29T20:12:20.236Z,78.70
2019-05-29T20:19:05.424Z,79.60
2019-05-29T20:25:50.346Z,80.70
2019-05-29T20:32:36.683Z,81.30
2019-05-29T20:39:21.706Z,83.10
2019-05-29T20:46:06.736Z,84.20
2019-05-29T20:52:51.767Z,84.50
2019-05-29T20:59:38.099Z,83.80
2019-05-29T21:06:23.255Z,84.80
2019-05-29T21:13:08.117Z,86.20
2019-05-29T21:19:53.512Z,86.20
2019-05-29T21:26:38.923Z,87.50
2019-05-29T21:33:23.903Z,88.50
2019-05-29T21:40:09.593Z,89.20
2019-05-29T21:46:54.544Z,90.60
2019-05-29T21:53:39.532Z,91.20
2019-05-29T22:00:27.003Z,91.80
2019-05-29T22:07:13.526Z,92.30
2019-05-29T22:13:58.590Z,92.80
2019-05-29T22:20:43.592Z,93.90
2019-05-29T22:27:28.714Z,94.00
2019-05-29T22:34:13.572Z,93.90
2019-05-29T22:40:59.607Z,94.40
2019-05-29T22:47:44.678Z,94.60
2019-05-29T22:54:29.619Z,94.70
2019-05-29T23:01:14.565Z,94.70
2019-05-29T23:08:00.322Z,94.20
2019-05-29T23:14:45.337Z,94.70
2019-05-29T23:21:30.258Z,94.60
2019-05-29T23:28:15.110Z,94.70
2019-05-29T23:35:00.950Z,95.20
2019-05-29T23:41:46.483Z,95.00
2019-05-29T23:48:31.703Z,95.00
2019-05-29T23:55:16.929Z,95.40
